sensor_id;sensor_type;location;lat;lon;timestamp;P1;durP1;ratioP1;P2;durP2;ratioP2
51654;SDS011;37732;53.106;7.030;2022-11-04T00:01:02;15.63;;;14.02;;
51654;SDS011;37732;53.106;7.030;2022-11-04T00:03:29;15.70;;;13.90;;
51654;SDS011;37732;53.106;7.030;2022-11-04T00:05:55;15.35;;;13.80;;
51654;SDS011;37732;53.106;7.030;2022-11-04T00:08:25;14.48;;;12.70;;
51654;SDS011;37732;53.106;7.030;2022-11-04T00:10:55;15.35;;;13.23;;
51654;SDS011;37732;53.106;7.030;2022-11-04T00:13:40;12.88;;;11.57;;
51654;SDS011;37732;53.106;7.030;2022-11-04T00:16:06;14.98;;;13.52;;
51654;SDS011;37732;53.106;7.030;2022-11-04T00:18:56;14.25;;;12.90;;
51654;SDS011;37732;53.106;7.030;2022-11-04T00:21:23;13.95;;;12.50;;
51654;SDS011;37732;53.106;7.030;2022-11-04T00:24:09;13.45;;;12.00;;
51654;SDS011;37732;53.106;7.030;2022-11-04T00:26:56;13.90;;;12.43;;
51654;SDS011;37732;53.106;7.030;2022-11-04T00:29:41;13.52;;;12.13;;
51654;SDS011;37732;53.106;7.030;2022-11-04T00:32:06;14.43;;;12.60;;
51654;SDS011;37732;53.106;7.030;2022-11-04T00:34:51;16.13;;;13.00;;
51654;SDS011;37732;53.106;7.030;2022-11-04T00:37:17;16.20;;;14.20;;
51654;SDS011;37732;53.106;7.030;2022-11-04T00:39:42;13.75;;;12.27;;
51654;SDS011;37732;53.106;7.030;2022-11-04T00:42:08;15.43;;;13.68;;
51654;SDS011;37732;53.106;7.030;2022-11-04T00:44:34;14.15;;;12.73;;
51654;SDS011;37732;53.106;7.030;2022-11-04T00:46:59;13.63;;;12.23;;
51654;SDS011;37732;53.106;7.030;2022-11-04T00:49:25;12.73;;;11.50;;
51654;SDS011;37732;53.106;7.030;2022-11-04T00:51:51;12.05;;;10.85;;
51654;SDS011;37732;53.106;7.030;2022-11-04T00:54:17;13.25;;;11.05;;
51654;SDS011;37732;53.106;7.030;2022-11-04T00:56:42;10.75;;;9.30;;
51654;SDS011;37732;53.106;7.030;2022-11-04T00:59:08;11.65;;;9.55;;
51654;SDS011;37732;53.106;7.030;2022-11-04T01:01:35;11.75;;;9.45;;
51654;SDS011;37732;53.106;7.030;2022-11-04T01:04:00;10.32;;;9.13;;
51654;SDS011;37732;53.106;7.030;2022-11-04T01:06:26;10.88;;;9.45;;
51654;SDS011;37732;53.106;7.030;2022-11-04T01:08:55;10.48;;;9.43;;
51654;SDS011;37732;53.106;7.030;2022-11-04T01:13:53;9.88;;;8.50;;
51654;SDS011;37732;53.106;7.030;2022-11-04T01:16:20;8.45;;;7.00;;
51654;SDS011;37732;53.106;7.030;2022-11-04T01:18:46;8.38;;;6.72;;
51654;SDS011;37732;53.106;7.030;2022-11-04T01:21:13;9.50;;;6.65;;
51654;SDS011;37732;53.106;7.030;2022-11-04T01:23:40;9.90;;;5.32;;
51654;SDS011;37732;53.106;7.030;2022-11-04T01:26:08;7.22;;;4.82;;
51654;SDS011;37732;53.106;7.030;2022-11-04T01:28:36;5.53;;;3.88;;
51654;SDS011;37732;53.106;7.030;2022-11-04T01:31:06;5.10;;;3.63;;
51654;SDS011;37732;53.106;7.030;2022-11-04T01:33:33;5.97;;;3.03;;
51654;SDS011;37732;53.106;7.030;2022-11-04T01:35:59;4.85;;;2.63;;
51654;SDS011;37732;53.106;7.030;2022-11-04T01:38:25;5.40;;;2.88;;
51654;SDS011;37732;53.106;7.030;2022-11-04T01:40:50;4.50;;;3.22;;
51654;SDS011;37732;53.106;7.030;2022-11-04T01:43:18;5.50;;;3.10;;
51654;SDS011;37732;53.106;7.030;2022-11-04T01:45:52;4.72;;;3.17;;
51654;SDS011;37732;53.106;7.030;2022-11-04T01:48:25;4.95;;;3.22;;
51654;SDS011;37732;53.106;7.030;2022-11-04T01:50:55;4.47;;;2.65;;
51654;SDS011;37732;53.106;7.030;2022-11-04T01:53:23;4.70;;;2.80;;
51654;SDS011;37732;53.106;7.030;2022-11-04T01:55:58;4.35;;;2.85;;
51654;SDS011;37732;53.106;7.030;2022-11-04T01:58:28;4.28;;;2.70;;
51654;SDS011;37732;53.106;7.030;2022-11-04T02:00:59;5.35;;;3.17;;
51654;SDS011;37732;53.106;7.030;2022-11-04T02:05:57;4.20;;;2.80;;
51654;SDS011;37732;53.106;7.030;2022-11-04T02:08:24;3.88;;;2.03;;
51654;SDS011;37732;53.106;7.030;2022-11-04T02:10:56;3.72;;;2.40;;
51654;SDS011;37732;53.106;7.030;2022-11-04T02:13:25;5.35;;;2.33;;
51654;SDS011;37732;53.106;7.030;2022-11-04T02:30:23;2.15;;;0.80;;
51654;SDS011;37732;53.106;7.030;2022-11-04T02:32:59;3.58;;;0.90;;
51654;SDS011;37732;53.106;7.030;2022-11-04T02:36:01;2.90;;;0.95;;
51654;SDS011;37732;53.106;7.030;2022-11-04T02:38:49;1.83;;;1.00;;
51654;SDS011;37732;53.106;7.030;2022-11-04T02:41:29;2.38;;;1.08;;
51654;SDS011;37732;53.106;7.030;2022-11-04T02:46:52;6.43;;;1.17;;
51654;SDS011;37732;53.106;7.030;2022-11-04T02:52:01;5.13;;;1.30;;
51654;SDS011;37732;53.106;7.030;2022-11-04T02:54:50;4.60;;;1.95;;
51654;SDS011;37732;53.106;7.030;2022-11-04T02:57:25;3.25;;;1.30;;
51654;SDS011;37732;53.106;7.030;2022-11-04T02:59:56;3.22;;;1.20;;
51654;SDS011;37732;53.106;7.030;2022-11-04T03:02:33;4.63;;;1.50;;
51654;SDS011;37732;53.106;7.030;2022-11-04T03:05:22;2.63;;;1.25;;
51654;SDS011;37732;53.106;7.030;2022-11-04T03:07:53;3.28;;;1.42;;
51654;SDS011;37732;53.106;7.030;2022-11-04T03:10:29;5.18;;;1.45;;
51654;SDS011;37732;53.106;7.030;2022-11-04T03:13:10;4.15;;;1.35;;
51654;SDS011;37732;53.106;7.030;2022-11-04T03:16:00;2.22;;;1.08;;
51654;SDS011;37732;53.106;7.030;2022-11-04T03:18:53;3.50;;;1.20;;
51654;SDS011;37732;53.106;7.030;2022-11-04T03:21:46;1.38;;;0.80;;
51654;SDS011;37732;53.106;7.030;2022-11-04T03:24:18;2.22;;;0.90;;
51654;SDS011;37732;53.106;7.030;2022-11-04T03:27:07;3.55;;;1.35;;
51654;SDS011;37732;53.106;7.030;2022-11-04T03:32:44;1.45;;;0.65;;
51654;SDS011;37732;53.106;7.030;2022-11-04T03:35:21;1.30;;;0.63;;
51654;SDS011;37732;53.106;7.030;2022-11-04T03:37:47;4.47;;;1.17;;
51654;SDS011;37732;53.106;7.030;2022-11-04T03:40:14;3.95;;;1.00;;
51654;SDS011;37732;53.106;7.030;2022-11-04T03:43:00;1.58;;;0.90;;
51654;SDS011;37732;53.106;7.030;2022-11-04T03:45:30;3.42;;;0.70;;
51654;SDS011;37732;53.106;7.030;2022-11-04T03:47:56;4.30;;;1.00;;
51654;SDS011;37732;53.106;7.030;2022-11-04T03:50:38;4.13;;;1.40;;
51654;SDS011;37732;53.106;7.030;2022-11-04T03:53:06;3.33;;;1.02;;
51654;SDS011;37732;53.106;7.030;2022-11-04T03:55:40;2.42;;;0.93;;
51654;SDS011;37732;53.106;7.030;2022-11-04T04:00:49;2.08;;;0.90;;
51654;SDS011;37732;53.106;7.030;2022-11-04T04:03:23;2.63;;;1.08;;
51654;SDS011;37732;53.106;7.030;2022-11-04T04:08:45;2.95;;;1.42;;
51654;SDS011;37732;53.106;7.030;2022-11-04T04:14:24;3.58;;;1.60;;
51654;SDS011;37732;53.106;7.030;2022-11-04T04:20:25;3.20;;;1.85;;
51654;SDS011;37732;53.106;7.030;2022-11-04T04:22:54;2.95;;;1.73;;
51654;SDS011;37732;53.106;7.030;2022-11-04T04:26:01;3.10;;;1.77;;
51654;SDS011;37732;53.106;7.030;2022-11-04T04:28:49;3.42;;;1.70;;
51654;SDS011;37732;53.106;7.030;2022-11-04T04:31:18;3.67;;;1.67;;
51654;SDS011;37732;53.106;7.030;2022-11-04T04:34:04;2.58;;;1.52;;
51654;SDS011;37732;53.106;7.030;2022-11-04T04:36:31;3.47;;;1.38;;
51654;SDS011;37732;53.106;7.030;2022-11-04T04:39:03;1.90;;;1.17;;
51654;SDS011;37732;53.106;7.030;2022-11-04T04:41:51;1.85;;;0.80;;
51654;SDS011;37732;53.106;7.030;2022-11-04T04:44:37;1.55;;;0.60;;
51654;SDS011;37732;53.106;7.030;2022-11-04T04:50:08;0.93;;;0.50;;
51654;SDS011;37732;53.106;7.030;2022-11-04T04:52:39;2.78;;;0.70;;
51654;SDS011;37732;53.106;7.030;2022-11-04T04:55:07;4.28;;;0.88;;
51654;SDS011;37732;53.106;7.030;2022-11-04T04:57:33;1.83;;;0.63;;
51654;SDS011;37732;53.106;7.030;2022-11-04T04:59:59;1.85;;;0.50;;
51654;SDS011;37732;53.106;7.030;2022-11-04T05:02:24;1.13;;;0.70;;
51654;SDS011;37732;53.106;7.030;2022-11-04T05:04:50;2.10;;;1.10;;
51654;SDS011;37732;53.106;7.030;2022-11-04T05:07:16;1.30;;;0.73;;
51654;SDS011;37732;53.106;7.030;2022-11-04T05:09:41;1.02;;;0.80;;
51654;SDS011;37732;53.106;7.030;2022-11-04T05:12:08;2.45;;;1.20;;
51654;SDS011;37732;53.106;7.030;2022-11-04T05:14:34;3.55;;;1.63;;
51654;SDS011;37732;53.106;7.030;2022-11-04T05:17:00;2.80;;;1.40;;
51654;SDS011;37732;53.106;7.030;2022-11-04T05:19:25;4.68;;;2.03;;
51654;SDS011;37732;53.106;7.030;2022-11-04T05:21:51;3.67;;;1.48;;
51654;SDS011;37732;53.106;7.030;2022-11-04T05:24:17;3.15;;;1.52;;
51654;SDS011;37732;53.106;7.030;2022-11-04T05:26:43;3.42;;;1.40;;
51654;SDS011;37732;53.106;7.030;2022-11-04T05:29:09;2.30;;;1.23;;
51654;SDS011;37732;53.106;7.030;2022-11-04T05:31:36;2.95;;;1.17;;
51654;SDS011;37732;53.106;7.030;2022-11-04T05:34:02;3.85;;;1.10;;
51654;SDS011;37732;53.106;7.030;2022-11-04T05:36:29;1.90;;;0.98;;
51654;SDS011;37732;53.106;7.030;2022-11-04T05:38:57;4.90;;;1.00;;
51654;SDS011;37732;53.106;7.030;2022-11-04T05:41:23;2.20;;;0.77;;
51654;SDS011;37732;53.106;7.030;2022-11-04T05:43:52;2.83;;;1.13;;
51654;SDS011;37732;53.106;7.030;2022-11-04T05:46:25;2.78;;;1.00;;
51654;SDS011;37732;53.106;7.030;2022-11-04T05:48:51;2.75;;;0.70;;
51654;SDS011;37732;53.106;7.030;2022-11-04T05:51:20;2.17;;;0.80;;
51654;SDS011;37732;53.106;7.030;2022-11-04T05:53:48;3.47;;;1.00;;
51654;SDS011;37732;53.106;7.030;2022-11-04T05:56:14;2.08;;;1.17;;
51654;SDS011;37732;53.106;7.030;2022-11-04T05:58:40;4.75;;;1.70;;
51654;SDS011;37732;53.106;7.030;2022-11-04T06:01:23;4.65;;;1.30;;
51654;SDS011;37732;53.106;7.030;2022-11-04T06:04:00;2.72;;;1.20;;
51654;SDS011;37732;53.106;7.030;2022-11-04T06:06:30;3.38;;;1.52;;
51654;SDS011;37732;53.106;7.030;2022-11-04T06:08:57;1.85;;;0.90;;
51654;SDS011;37732;53.106;7.030;2022-11-04T06:11:24;2.55;;;0.90;;
51654;SDS011;37732;53.106;7.030;2022-11-04T06:13:55;2.30;;;0.90;;
51654;SDS011;37732;53.106;7.030;2022-11-04T06:16:22;1.55;;;0.75;;
51654;SDS011;37732;53.106;7.030;2022-11-04T06:18:48;1.92;;;0.90;;
51654;SDS011;37732;53.106;7.030;2022-11-04T06:23:42;1.52;;;0.90;;
51654;SDS011;37732;53.106;7.030;2022-11-04T06:26:09;2.78;;;0.90;;
51654;SDS011;37732;53.106;7.030;2022-11-04T06:28:36;2.97;;;1.05;;
51654;SDS011;37732;53.106;7.030;2022-11-04T06:31:04;2.92;;;0.90;;
51654;SDS011;37732;53.106;7.030;2022-11-04T06:33:32;2.53;;;0.90;;
51654;SDS011;37732;53.106;7.030;2022-11-04T06:35:59;1.33;;;0.70;;
51654;SDS011;37732;53.106;7.030;2022-11-04T06:38:27;3.97;;;1.13;;
51654;SDS011;37732;53.106;7.030;2022-11-04T06:40:54;5.78;;;0.90;;
51654;SDS011;37732;53.106;7.030;2022-11-04T06:43:20;1.27;;;0.70;;
51654;SDS011;37732;53.106;7.030;2022-11-04T06:45:59;2.10;;;0.80;;
51654;SDS011;37732;53.106;7.030;2022-11-04T06:48:26;2.45;;;1.00;;
51654;SDS011;37732;53.106;7.030;2022-11-04T06:50:55;2.38;;;1.00;;
51654;SDS011;37732;53.106;7.030;2022-11-04T06:53:25;4.35;;;1.10;;
51654;SDS011;37732;53.106;7.030;2022-11-04T06:55:51;2.45;;;1.33;;
51654;SDS011;37732;53.106;7.030;2022-11-04T06:58:18;4.95;;;2.25;;
51654;SDS011;37732;53.106;7.030;2022-11-04T07:00:49;5.53;;;2.78;;
51654;SDS011;37732;53.106;7.030;2022-11-04T07:03:16;6.50;;;2.90;;
51654;SDS011;37732;53.106;7.030;2022-11-04T07:05:42;4.60;;;1.90;;
51654;SDS011;37732;53.106;7.030;2022-11-04T07:08:08;3.13;;;1.25;;
51654;SDS011;37732;53.106;7.030;2022-11-04T07:10:33;3.08;;;1.67;;
51654;SDS011;37732;53.106;7.030;2022-11-04T07:13:00;4.78;;;1.30;;
51654;SDS011;37732;53.106;7.030;2022-11-04T07:15:26;4.03;;;1.42;;
51654;SDS011;37732;53.106;7.030;2022-11-04T07:17:51;9.95;;;2.08;;
51654;SDS011;37732;53.106;7.030;2022-11-04T07:20:17;2.45;;;1.13;;
51654;SDS011;37732;53.106;7.030;2022-11-04T07:22:43;3.45;;;1.20;;
51654;SDS011;37732;53.106;7.030;2022-11-04T07:25:08;4.57;;;1.35;;
51654;SDS011;37732;53.106;7.030;2022-11-04T07:27:34;5.47;;;1.35;;
51654;SDS011;37732;53.106;7.030;2022-11-04T07:30:00;3.72;;;1.10;;
51654;SDS011;37732;53.106;7.030;2022-11-04T07:32:26;5.18;;;1.30;;
51654;SDS011;37732;53.106;7.030;2022-11-04T07:34:52;3.40;;;1.20;;
51654;SDS011;37732;53.106;7.030;2022-11-04T07:37:18;2.17;;;0.88;;
51654;SDS011;37732;53.106;7.030;2022-11-04T07:39:43;3.90;;;1.13;;
51654;SDS011;37732;53.106;7.030;2022-11-04T07:42:09;3.15;;;1.00;;
51654;SDS011;37732;53.106;7.030;2022-11-04T07:44:35;2.13;;;1.02;;
51654;SDS011;37732;53.106;7.030;2022-11-04T07:47:01;2.45;;;0.90;;
51654;SDS011;37732;53.106;7.030;2022-11-04T07:49:26;3.30;;;0.90;;
51654;SDS011;37732;53.106;7.030;2022-11-04T07:51:53;4.28;;;1.10;;
51654;SDS011;37732;53.106;7.030;2022-11-04T07:54:19;3.15;;;1.00;;
51654;SDS011;37732;53.106;7.030;2022-11-04T07:56:44;2.38;;;1.10;;
51654;SDS011;37732;53.106;7.030;2022-11-04T07:59:10;4.15;;;1.00;;
51654;SDS011;37732;53.106;7.030;2022-11-04T08:01:36;4.97;;;1.55;;
51654;SDS011;37732;53.106;7.030;2022-11-04T08:04:01;2.42;;;1.10;;
51654;SDS011;37732;53.106;7.030;2022-11-04T08:06:29;2.42;;;1.27;;
51654;SDS011;37732;53.106;7.030;2022-11-04T08:08:56;2.67;;;0.98;;
51654;SDS011;37732;53.106;7.030;2022-11-04T08:11:23;4.05;;;1.20;;
51654;SDS011;37732;53.106;7.030;2022-11-04T08:13:52;1.80;;;1.05;;
51654;SDS011;37732;53.106;7.030;2022-11-04T08:16:20;2.38;;;1.10;;
51654;SDS011;37732;53.106;7.030;2022-11-04T08:18:47;3.92;;;1.10;;
51654;SDS011;37732;53.106;7.030;2022-11-04T08:21:16;2.40;;;1.20;;
51654;SDS011;37732;53.106;7.030;2022-11-04T08:23:43;2.95;;;1.40;;
51654;SDS011;37732;53.106;7.030;2022-11-04T08:26:16;1.98;;;1.13;;
51654;SDS011;37732;53.106;7.030;2022-11-04T08:28:43;3.05;;;1.33;;
51654;SDS011;37732;53.106;7.030;2022-11-04T08:31:13;2.58;;;1.10;;
51654;SDS011;37732;53.106;7.030;2022-11-04T08:33:41;2.33;;;1.25;;
51654;SDS011;37732;53.106;7.030;2022-11-04T08:36:18;5.03;;;1.30;;
51654;SDS011;37732;53.106;7.030;2022-11-04T08:38:46;4.38;;;1.67;;
51654;SDS011;37732;53.106;7.030;2022-11-04T08:41:13;3.83;;;1.20;;
51654;SDS011;37732;53.106;7.030;2022-11-04T08:43:41;3.92;;;1.50;;
51654;SDS011;37732;53.106;7.030;2022-11-04T08:46:08;3.38;;;1.83;;
51654;SDS011;37732;53.106;7.030;2022-11-04T08:48:35;3.30;;;1.52;;
51654;SDS011;37732;53.106;7.030;2022-11-04T08:51:03;3.78;;;2.00;;
51654;SDS011;37732;53.106;7.030;2022-11-04T08:53:30;5.82;;;2.10;;
51654;SDS011;37732;53.106;7.030;2022-11-04T08:55:57;7.57;;;3.13;;
51654;SDS011;37732;53.106;7.030;2022-11-04T08:58:23;4.05;;;2.20;;
51654;SDS011;37732;53.106;7.030;2022-11-04T09:00:49;5.43;;;2.83;;
51654;SDS011;37732;53.106;7.030;2022-11-04T09:03:15;3.53;;;2.00;;
51654;SDS011;37732;53.106;7.030;2022-11-04T09:05:42;5.13;;;2.15;;
51654;SDS011;37732;53.106;7.030;2022-11-04T09:08:14;4.78;;;2.63;;
51654;SDS011;37732;53.106;7.030;2022-11-04T09:10:42;6.07;;;2.75;;
51654;SDS011;37732;53.106;7.030;2022-11-04T09:13:10;3.83;;;2.35;;
51654;SDS011;37732;53.106;7.030;2022-11-04T09:15:36;4.43;;;2.33;;
51654;SDS011;37732;53.106;7.030;2022-11-04T09:18:03;6.22;;;2.55;;
51654;SDS011;37732;53.106;7.030;2022-11-04T09:20:29;4.22;;;1.70;;
51654;SDS011;37732;53.106;7.030;2022-11-04T09:22:56;3.83;;;2.08;;
51654;SDS011;37732;53.106;7.030;2022-11-04T09:25:22;2.78;;;1.50;;
51654;SDS011;37732;53.106;7.030;2022-11-04T09:27:47;2.05;;;1.20;;
51654;SDS011;37732;53.106;7.030;2022-11-04T09:30:13;1.83;;;1.10;;
51654;SDS011;37732;53.106;7.030;2022-11-04T09:32:40;4.68;;;1.23;;
51654;SDS011;37732;53.106;7.030;2022-11-04T09:35:05;3.65;;;1.52;;
51654;SDS011;37732;53.106;7.030;2022-11-04T09:37:32;3.38;;;1.15;;
51654;SDS011;37732;53.106;7.030;2022-11-04T09:39:58;2.03;;;1.08;;
51654;SDS011;37732;53.106;7.030;2022-11-04T09:45:13;3.00;;;1.38;;
51654;SDS011;37732;53.106;7.030;2022-11-04T09:47:43;3.85;;;1.20;;
51654;SDS011;37732;53.106;7.030;2022-11-04T09:50:17;5.53;;;1.35;;
51654;SDS011;37732;53.106;7.030;2022-11-04T09:52:51;2.95;;;1.08;;
51654;SDS011;37732;53.106;7.030;2022-11-04T09:55:31;5.35;;;1.52;;
51654;SDS011;37732;53.106;7.030;2022-11-04T09:58:04;2.28;;;1.13;;
51654;SDS011;37732;53.106;7.030;2022-11-04T10:00:33;4.00;;;1.23;;
51654;SDS011;37732;53.106;7.030;2022-11-04T10:03:15;2.42;;;1.20;;
51654;SDS011;37732;53.106;7.030;2022-11-04T10:08:55;4.80;;;1.30;;
51654;SDS011;37732;53.106;7.030;2022-11-04T10:22:57;7.07;;;1.60;;
51654;SDS011;37732;53.106;7.030;2022-11-04T10:25:35;2.63;;;1.40;;
51654;SDS011;37732;53.106;7.030;2022-11-04T10:28:16;5.47;;;1.90;;
51654;SDS011;37732;53.106;7.030;2022-11-04T10:30:45;5.55;;;2.38;;
51654;SDS011;37732;53.106;7.030;2022-11-04T10:33:33;2.83;;;1.40;;
51654;SDS011;37732;53.106;7.030;2022-11-04T10:36:04;4.10;;;1.58;;
51654;SDS011;37732;53.106;7.030;2022-11-04T10:41:19;3.63;;;1.30;;
51654;SDS011;37732;53.106;7.030;2022-11-04T10:44:12;4.68;;;1.70;;
51654;SDS011;37732;53.106;7.030;2022-11-04T10:49:37;7.65;;;1.60;;
51654;SDS011;37732;53.106;7.030;2022-11-04T10:52:05;2.50;;;1.15;;
51654;SDS011;37732;53.106;7.030;2022-11-04T10:54:53;3.50;;;1.40;;
51654;SDS011;37732;53.106;7.030;2022-11-04T10:57:19;2.80;;;1.35;;
51654;SDS011;37732;53.106;7.030;2022-11-04T10:59:52;4.78;;;1.27;;
51654;SDS011;37732;53.106;7.030;2022-11-04T11:02:42;5.13;;;1.60;;
51654;SDS011;37732;53.106;7.030;2022-11-04T11:07:42;5.00;;;1.88;;
51654;SDS011;37732;53.106;7.030;2022-11-04T11:13:02;5.78;;;1.70;;
51654;SDS011;37732;53.106;7.030;2022-11-04T11:21:06;6.38;;;1.77;;
51654;SDS011;37732;53.106;7.030;2022-11-04T11:28:47;4.47;;;1.92;;
51654;SDS011;37732;53.106;7.030;2022-11-04T11:31:20;4.13;;;1.75;;
51654;SDS011;37732;53.106;7.030;2022-11-04T11:33:55;5.07;;;1.88;;
51654;SDS011;37732;53.106;7.030;2022-11-04T11:36:25;4.07;;;2.25;;
51654;SDS011;37732;53.106;7.030;2022-11-04T11:41:23;7.97;;;2.35;;
51654;SDS011;37732;53.106;7.030;2022-11-04T11:43:56;5.75;;;1.60;;
51654;SDS011;37732;53.106;7.030;2022-11-04T11:46:31;6.57;;;2.05;;
51654;SDS011;37732;53.106;7.030;2022-11-04T11:49:00;3.92;;;1.85;;
51654;SDS011;37732;53.106;7.030;2022-11-04T11:51:37;4.50;;;2.05;;
51654;SDS011;37732;53.106;7.030;2022-11-04T11:56:52;5.57;;;2.53;;
51654;SDS011;37732;53.106;7.030;2022-11-04T11:59:22;6.32;;;2.30;;
51654;SDS011;37732;53.106;7.030;2022-11-04T12:04:39;4.63;;;2.20;;
51654;SDS011;37732;53.106;7.030;2022-11-04T12:11:05;7.05;;;2.55;;
51654;SDS011;37732;53.106;7.030;2022-11-04T12:15:42;4.13;;;1.98;;
51654;SDS011;37732;53.106;7.030;2022-11-04T12:46:02;7.38;;;2.60;;
51654;SDS011;37732;53.106;7.030;2022-11-04T12:59:11;6.20;;;1.25;;
51654;SDS011;37732;53.106;7.030;2022-11-04T13:01:48;2.70;;;0.93;;
51654;SDS011;37732;53.106;7.030;2022-11-04T13:04:22;5.43;;;1.20;;
51654;SDS011;37732;53.106;7.030;2022-11-04T13:07:04;4.32;;;1.45;;
51654;SDS011;37732;53.106;7.030;2022-11-04T13:09:44;2.67;;;1.00;;
51654;SDS011;37732;53.106;7.030;2022-11-04T13:12:18;2.42;;;1.10;;
51654;SDS011;37732;53.106;7.030;2022-11-04T13:14:52;3.20;;;1.02;;
51654;SDS011;37732;53.106;7.030;2022-11-04T13:17:25;2.55;;;0.90;;
51654;SDS011;37732;53.106;7.030;2022-11-04T13:20:12;2.50;;;1.05;;
51654;SDS011;37732;53.106;7.030;2022-11-04T13:22:45;3.10;;;1.25;;
51654;SDS011;37732;53.106;7.030;2022-11-04T13:25:29;6.70;;;1.52;;
51654;SDS011;37732;53.106;7.030;2022-11-04T13:27:55;4.00;;;1.52;;
51654;SDS011;37732;53.106;7.030;2022-11-04T13:30:30;6.72;;;1.38;;
51654;SDS011;37732;53.106;7.030;2022-11-04T13:33:24;7.30;;;1.48;;
51654;SDS011;37732;53.106;7.030;2022-11-04T13:38:43;6.93;;;2.30;;
51654;SDS011;37732;53.106;7.030;2022-11-04T13:44:02;6.32;;;2.20;;
51654;SDS011;37732;53.106;7.030;2022-11-04T13:46:35;8.02;;;2.08;;
51654;SDS011;37732;53.106;7.030;2022-11-04T13:51:43;10.10;;;1.92;;
51654;SDS011;37732;53.106;7.030;2022-11-04T13:57:22;5.72;;;1.50;;
51654;SDS011;37732;53.106;7.030;2022-11-04T14:02:41;4.03;;;1.40;;
51654;SDS011;37732;53.106;7.030;2022-11-04T14:23:45;13.75;;;2.95;;
51654;SDS011;37732;53.106;7.030;2022-11-04T14:26:17;5.83;;;1.97;;
51654;SDS011;37732;53.106;7.030;2022-11-04T14:29:00;5.43;;;1.58;;
51654;SDS011;37732;53.106;7.030;2022-11-04T14:31:38;4.57;;;1.50;;
51654;SDS011;37732;53.106;7.030;2022-11-04T14:46:41;6.00;;;1.38;;
51654;SDS011;37732;53.106;7.030;2022-11-04T14:49:27;7.80;;;1.83;;
51654;SDS011;37732;53.106;7.030;2022-11-04T14:51:55;3.50;;;1.48;;
51654;SDS011;37732;53.106;7.030;2022-11-04T14:54:23;4.47;;;1.40;;
51654;SDS011;37732;53.106;7.030;2022-11-04T14:57:15;6.88;;;2.10;;
51654;SDS011;37732;53.106;7.030;2022-11-04T14:59:43;3.50;;;1.60;;
51654;SDS011;37732;53.106;7.030;2022-11-04T15:02:28;5.65;;;1.88;;
51654;SDS011;37732;53.106;7.030;2022-11-04T15:04:59;5.75;;;1.83;;
51654;SDS011;37732;53.106;7.030;2022-11-04T15:07:38;4.60;;;1.70;;
51654;SDS011;37732;53.106;7.030;2022-11-04T15:10:21;4.35;;;1.90;;
51654;SDS011;37732;53.106;7.030;2022-11-04T15:12:51;4.32;;;2.08;;
51654;SDS011;37732;53.106;7.030;2022-11-04T15:15:34;5.35;;;1.88;;
51654;SDS011;37732;53.106;7.030;2022-11-04T15:18:06;4.10;;;1.77;;
51654;SDS011;37732;53.106;7.030;2022-11-04T15:20:35;4.85;;;1.90;;
51654;SDS011;37732;53.106;7.030;2022-11-04T15:23:11;3.55;;;1.70;;
51654;SDS011;37732;53.106;7.030;2022-11-04T15:25:46;2.42;;;1.60;;
51654;SDS011;37732;53.106;7.030;2022-11-04T15:28:16;5.07;;;1.70;;
51654;SDS011;37732;53.106;7.030;2022-11-04T15:30:47;5.00;;;1.88;;
51654;SDS011;37732;53.106;7.030;2022-11-04T15:33:29;5.60;;;1.58;;
51654;SDS011;37732;53.106;7.030;2022-11-04T15:36:00;4.07;;;1.50;;
51654;SDS011;37732;53.106;7.030;2022-11-04T15:38:27;5.82;;;1.70;;
51654;SDS011;37732;53.106;7.030;2022-11-04T15:40:53;3.45;;;1.45;;
51654;SDS011;37732;53.106;7.030;2022-11-04T15:43:41;2.45;;;1.58;;
51654;SDS011;37732;53.106;7.030;2022-11-04T15:46:08;7.55;;;2.00;;
51654;SDS011;37732;53.106;7.030;2022-11-04T15:48:41;4.47;;;1.88;;
51654;SDS011;37732;53.106;7.030;2022-11-04T15:54:07;5.07;;;2.38;;
51654;SDS011;37732;53.106;7.030;2022-11-04T15:56:47;9.05;;;7.85;;
51654;SDS011;37732;53.106;7.030;2022-11-04T15:59:37;8.60;;;4.45;;
51654;SDS011;37732;53.106;7.030;2022-11-04T16:02:05;7.10;;;3.80;;
51654;SDS011;37732;53.106;7.030;2022-11-04T16:05:02;4.97;;;2.83;;
51654;SDS011;37732;53.106;7.030;2022-11-04T16:07:39;5.00;;;2.67;;
51654;SDS011;37732;53.106;7.030;2022-11-04T16:13:02;7.25;;;2.80;;
51654;SDS011;37732;53.106;7.030;2022-11-04T16:18:38;9.82;;;4.07;;
51654;SDS011;37732;53.106;7.030;2022-11-04T16:21:08;8.00;;;3.50;;
51654;SDS011;37732;53.106;7.030;2022-11-04T16:23:48;7.10;;;3.17;;
51654;SDS011;37732;53.106;7.030;2022-11-04T16:26:28;10.73;;;5.45;;
51654;SDS011;37732;53.106;7.030;2022-11-04T16:29:04;8.25;;;5.57;;
51654;SDS011;37732;53.106;7.030;2022-11-04T16:31:33;8.52;;;5.45;;
51654;SDS011;37732;53.106;7.030;2022-11-04T16:34:01;9.30;;;5.05;;
51654;SDS011;37732;53.106;7.030;2022-11-04T16:36:28;9.57;;;4.68;;
51654;SDS011;37732;53.106;7.030;2022-11-04T16:38:54;8.25;;;3.83;;
51654;SDS011;37732;53.106;7.030;2022-11-04T16:41:23;8.38;;;3.65;;
51654;SDS011;37732;53.106;7.030;2022-11-04T16:43:53;8.75;;;3.88;;
51654;SDS011;37732;53.106;7.030;2022-11-04T16:46:20;6.82;;;3.30;;
51654;SDS011;37732;53.106;7.030;2022-11-04T16:48:47;7.78;;;3.63;;
51654;SDS011;37732;53.106;7.030;2022-11-04T16:51:19;6.47;;;3.50;;
51654;SDS011;37732;53.106;7.030;2022-11-04T16:53:46;7.45;;;3.22;;
51654;SDS011;37732;53.106;7.030;2022-11-04T16:56:15;10.52;;;6.47;;
51654;SDS011;37732;53.106;7.030;2022-11-04T16:58:41;9.25;;;5.07;;
51654;SDS011;37732;53.106;7.030;2022-11-04T17:01:10;9.10;;;4.55;;
51654;SDS011;37732;53.106;7.030;2022-11-04T17:03:40;5.68;;;3.33;;
51654;SDS011;37732;53.106;7.030;2022-11-04T17:06:10;7.35;;;3.95;;
51654;SDS011;37732;53.106;7.030;2022-11-04T17:08:38;7.03;;;3.55;;
51654;SDS011;37732;53.106;7.030;2022-11-04T17:11:04;6.93;;;3.58;;
51654;SDS011;37732;53.106;7.030;2022-11-04T17:13:30;6.90;;;3.17;;
51654;SDS011;37732;53.106;7.030;2022-11-04T17:15:56;7.88;;;3.22;;
51654;SDS011;37732;53.106;7.030;2022-11-04T17:18:22;8.60;;;3.58;;
51654;SDS011;37732;53.106;7.030;2022-11-04T17:20:49;8.98;;;3.40;;
51654;SDS011;37732;53.106;7.030;2022-11-04T17:23:18;6.63;;;3.42;;
51654;SDS011;37732;53.106;7.030;2022-11-04T17:25:45;5.50;;;3.20;;
51654;SDS011;37732;53.106;7.030;2022-11-04T17:28:12;5.50;;;3.17;;
51654;SDS011;37732;53.106;7.030;2022-11-04T17:30:38;8.90;;;3.60;;
51654;SDS011;37732;53.106;7.030;2022-11-04T17:33:15;8.02;;;3.90;;
51654;SDS011;37732;53.106;7.030;2022-11-04T17:35:43;7.00;;;3.42;;
51654;SDS011;37732;53.106;7.030;2022-11-04T17:38:12;6.30;;;3.33;;
51654;SDS011;37732;53.106;7.030;2022-11-04T17:40:39;10.20;;;5.05;;
51654;SDS011;37732;53.106;7.030;2022-11-04T17:43:25;6.60;;;3.67;;
51654;SDS011;37732;53.106;7.030;2022-11-04T17:46:09;9.45;;;3.75;;
51654;SDS011;37732;53.106;7.030;2022-11-04T17:48:55;6.82;;;3.47;;
51654;SDS011;37732;53.106;7.030;2022-11-04T17:51:21;10.52;;;4.13;;
51654;SDS011;37732;53.106;7.030;2022-11-04T17:53:47;6.25;;;3.88;;
51654;SDS011;37732;53.106;7.030;2022-11-04T17:56:17;7.97;;;3.15;;
51654;SDS011;37732;53.106;7.030;2022-11-04T17:58:44;10.05;;;4.95;;
51654;SDS011;37732;53.106;7.030;2022-11-04T18:01:11;8.55;;;3.53;;
51654;SDS011;37732;53.106;7.030;2022-11-04T18:03:39;5.65;;;3.10;;
51654;SDS011;37732;53.106;7.030;2022-11-04T18:06:06;8.20;;;3.45;;
51654;SDS011;37732;53.106;7.030;2022-11-04T18:08:33;8.25;;;3.10;;
51654;SDS011;37732;53.106;7.030;2022-11-04T18:10:59;8.20;;;3.72;;
51654;SDS011;37732;53.106;7.030;2022-11-04T18:13:26;6.50;;;3.47;;
51654;SDS011;37732;53.106;7.030;2022-11-04T18:15:52;7.95;;;4.50;;
51654;SDS011;37732;53.106;7.030;2022-11-04T18:18:19;9.73;;;5.30;;
51654;SDS011;37732;53.106;7.030;2022-11-04T18:20:45;8.80;;;5.72;;